createdAt,value
2022-12-17T00:02:10.837Z,70.57
2022-12-17T00:04:57.039Z,62.30
2022-12-17T00:07:43.149Z,76.70
2022-12-17T00:10:29.126Z,66.63
2022-12-17T00:13:15.238Z,64.00
2022-12-17T00:16:01.078Z,74.40
2022-12-17T00:18:47.960Z,68.03
2022-12-17T00:21:34.128Z,60.83
2022-12-17T00:24:19.838Z,77.20
2022-12-17T00:27:05.905Z,65.27
2022-12-17T00:29:51.690Z,60.70
2022-12-17T00:32:37.691Z,54.93
2022-12-17T00:35:25.645Z,57.97
2022-12-17T00:38:11.658Z,61.47
2022-12-17T00:40:57.383Z,67.30
2022-12-17T00:43:45.716Z,59.13
2022-12-17T00:46:31.826Z,61.27
2022-12-17T00:49:18.232Z,60.40
2022-12-17T00:52:01.808Z,62.50
2022-12-17T00:54:47.918Z,70.60
2022-12-17T00:57:33.923Z,88.00
2022-12-17T01:00:20.233Z,99.93
2022-12-17T01:03:06.155Z,119.17
2022-12-17T01:05:51.932Z,132.13
2022-12-17T01:08:39.511Z,134.37
2022-12-17T01:11:27.048Z,147.67
2022-12-17T01:14:12.849Z,147.53
2022-12-17T01:16:59.220Z,554.40
2022-12-17T01:19:45.121Z,143.80
2022-12-17T01:22:31.253Z,83.17
2022-12-17T01:25:20.069Z,115.43
2022-12-17T01:28:07.069Z,228.47
2022-12-17T01:30:54.870Z,131.53
2022-12-17T01:33:41.728Z,120.00
2022-12-17T01:36:27.512Z,134.90
2022-12-17T01:39:13.515Z,131.47
2022-12-17T01:42:00.829Z,157.43
2022-12-17T01:45:14.437Z,224.00
2022-12-17T01:48:06.292Z,145.00
2022-12-17T01:50:55.667Z,148.90
2022-12-17T01:53:44.261Z,150.90
2022-12-17T01:56:31.177Z,133.97
2022-12-17T01:59:18.153Z,157.30
2022-12-17T02:02:04.186Z,147.23
2022-12-17T02:04:50.548Z,143.60
2022-12-17T02:07:46.796Z,152.93
2022-12-17T02:10:42.451Z,154.53
2022-12-17T02:13:34.906Z,160.63
2022-12-17T02:16:28.643Z,164.53
2022-12-17T02:19:28.934Z,145.53
2022-12-17T02:22:19.944Z,154.87
2022-12-17T02:25:12.068Z,144.27
2022-12-17T02:27:59.059Z,162.93
2022-12-17T02:30:53.617Z,157.23
2022-12-17T02:33:40.204Z,154.30
2022-12-17T02:36:27.519Z,153.03
2022-12-17T02:39:13.179Z,139.13
2022-12-17T02:42:03.886Z,152.90
2022-12-17T02:44:52.920Z,150.03
2022-12-17T02:47:40.944Z,157.77
2022-12-17T02:50:28.005Z,154.00
2022-12-17T02:53:17.524Z,159.03
2022-12-17T02:56:04.125Z,161.53
2022-12-17T02:58:52.547Z,154.97
2022-12-17T03:01:39.838Z,148.80
2022-12-17T03:04:25.855Z,138.17
2022-12-17T03:07:11.926Z,138.43
2022-12-17T03:09:58.084Z,145.33
2022-12-17T03:12:43.648Z,136.73
2022-12-17T03:15:29.535Z,135.10
2022-12-17T03:18:16.857Z,143.67
2022-12-17T03:21:02.990Z,140.97
2022-12-17T03:23:48.918Z,156.43
2022-12-17T03:26:34.761Z,123.43
2022-12-17T03:29:20.218Z,152.53
2022-12-17T03:32:06.132Z,147.10
2022-12-17T03:34:52.930Z,136.67
2022-12-17T03:37:38.831Z,138.97
2022-12-17T03:40:25.853Z,133.23
2022-12-17T03:43:12.003Z,205.23
2022-12-17T03:45:57.467Z,156.97
2022-12-17T03:48:43.187Z,153.07
2022-12-17T03:51:30.558Z,162.00
2022-12-17T03:54:16.854Z,152.10
2022-12-17T03:57:02.688Z,147.83
2022-12-17T03:59:48.607Z,145.90
2022-12-17T04:02:34.647Z,155.00
2022-12-17T04:05:20.866Z,155.13
2022-12-17T04:08:08.141Z,144.97
2022-12-17T04:10:54.352Z,144.27
2022-12-17T04:13:42.959Z,148.47
2022-12-17T04:16:31.690Z,149.80
2022-12-17T04:19:17.248Z,167.23
2022-12-17T04:22:03.221Z,156.07
2022-12-17T04:24:50.306Z,145.00
2022-12-17T04:27:36.189Z,156.93
2022-12-17T04:30:22.611Z,146.57
2022-12-17T04:33:08.671Z,152.83
2022-12-17T04:35:54.548Z,159.70
2022-12-17T04:38:40.635Z,157.07
2022-12-17T04:41:27.935Z,165.33
2022-12-17T04:44:13.846Z,151.23
2022-12-17T04:46:59.361Z,148.83
2022-12-17T04:49:45.708Z,142.70
2022-12-17T04:52:31.538Z,139.73
2022-12-17T04:55:17.594Z,145.47
2022-12-17T04:58:05.144Z,146.10
2022-12-17T05:00:51.376Z,142.97
2022-12-17T05:03:37.504Z,173.57
2022-12-17T05:06:24.874Z,143.90
2022-12-17T05:09:10.387Z,142.40
2022-12-17T05:11:56.523Z,157.37
2022-12-17T05:14:43.438Z,143.50
2022-12-17T05:17:29.683Z,162.43
2022-12-17T05:20:15.126Z,150.03
2022-12-17T05:23:00.953Z,149.77
2022-12-17T05:25:46.476Z,141.40
2022-12-17T05:28:32.640Z,141.03
2022-12-17T05:31:16.375Z,153.83
2022-12-17T05:34:02.613Z,146.93
2022-12-17T05:36:48.334Z,164.13
2022-12-17T05:39:30.962Z,144.00
2022-12-17T05:42:16.951Z,148.40
2022-12-17T05:45:02.764Z,145.77
2022-12-17T05:47:49.946Z,148.60
2022-12-17T05:50:36.145Z,160.87
2022-12-17T05:53:22.665Z,147.57
2022-12-17T05:56:10.950Z,145.77
2022-12-17T05:58:57.156Z,138.47
2022-12-17T06:01:43.270Z,140.60
2022-12-17T06:04:30.210Z,140.77
2022-12-17T06:07:15.226Z,137.43
2022-12-17T06:10:01.057Z,151.67
2022-12-17T06:12:46.896Z,147.50
2022-12-17T06:15:32.772Z,136.07
2022-12-17T06:18:20.183Z,152.67
2022-12-17T06:21:07.359Z,140.87
2022-12-17T06:23:53.666Z,137.30
2022-12-17T06:26:39.503Z,139.87
2022-12-17T06:29:25.385Z,146.63
2022-12-17T06:32:11.072Z,138.57
2022-12-17T06:34:57.125Z,134.43
2022-12-17T06:37:44.307Z,146.00
2022-12-17T06:40:30.636Z,136.10
2022-12-17T06:43:16.620Z,146.50
2022-12-17T06:46:02.687Z,137.63
2022-12-17T06:48:48.255Z,134.03
2022-12-17T06:51:34.343Z,153.30
2022-12-17T06:54:21.123Z,134.67
2022-12-17T06:57:07.325Z,140.97
2022-12-17T06:59:53.116Z,138.63
2022-12-17T07:02:39.387Z,141.97
2022-12-17T07:05:26.193Z,145.20
2022-12-17T07:08:16.249Z,147.10
2022-12-17T07:11:03.969Z,138.30
2022-12-17T07:13:50.035Z,147.50
2022-12-17T07:16:35.933Z,148.57
2022-12-17T07:19:27.046Z,155.70
2022-12-17T07:22:14.210Z,149.73
2022-12-17T07:25:00.681Z,131.70
2022-12-17T07:27:48.233Z,141.67
2022-12-17T07:30:34.758Z,142.03
2022-12-17T07:33:21.615Z,152.17
2022-12-17T07:36:07.183Z,141.77
2022-12-17T07:38:53.644Z,140.60
2022-12-17T07:41:39.855Z,139.07
2022-12-17T07:44:27.092Z,133.20
2022-12-17T07:47:13.139Z,127.40
2022-12-17T07:49:58.754Z,129.47
2022-12-17T07:52:44.620Z,128.03
2022-12-17T07:55:38.569Z,135.57
2022-12-17T07:58:27.895Z,130.60
2022-12-17T08:01:18.320Z,135.87
2022-12-17T08:04:04.937Z,141.50
2022-12-17T08:06:50.675Z,135.07
2022-12-17T08:09:36.456Z,149.40
2022-12-17T08:12:22.823Z,141.60
2022-12-17T08:15:08.057Z,139.40
2022-12-17T08:17:54.920Z,140.73
2022-12-17T08:20:41.586Z,137.97
2022-12-17T08:23:27.573Z,134.50
2022-12-17T08:26:13.566Z,141.00
2022-12-17T08:28:59.665Z,131.87
2022-12-17T08:31:45.926Z,141.43
2022-12-17T08:34:33.114Z,144.13
2022-12-17T08:37:19.312Z,141.33
2022-12-17T08:40:05.296Z,130.07
2022-12-17T08:42:51.717Z,130.07
2022-12-17T08:45:37.270Z,135.27
2022-12-17T08:48:25.081Z,119.60
2022-12-17T08:51:12.393Z,131.00
2022-12-17T08:53:54.851Z,123.27
2022-12-17T08:56:40.578Z,132.97
2022-12-17T08:59:26.720Z,114.73
2022-12-17T09:02:12.592Z,124.30
2022-12-17T09:04:59.170Z,127.90
2022-12-17T09:07:46.452Z,116.40
2022-12-17T09:10:32.408Z,121.07
2022-12-17T09:13:20.682Z,133.23
2022-12-17T09:16:11.073Z,129.10
2022-12-17T09:18:56.883Z,112.87
2022-12-17T09:21:45.418Z,119.57
2022-12-17T09:24:33.100Z,127.80
2022-12-17T09:27:19.061Z,125.00
2022-12-17T09:30:04.739Z,128.53
2022-12-17T09:32:51.221Z,136.73
2022-12-17T09:35:37.128Z,113.00
2022-12-17T09:38:22.931Z,127.73
2022-12-17T09:41:11.658Z,122.17
2022-12-17T09:44:05.032Z,126.87
2022-12-17T09:46:57.060Z,138.90
2022-12-17T09:49:46.405Z,139.20
2022-12-17T09:52:39.029Z,133.80
2022-12-17T09:55:38.723Z,127.87
2022-12-17T09:58:37.468Z,136.73
2022-12-17T10:01:24.725Z,130.87
2022-12-17T10:04:11.193Z,132.50
2022-12-17T10:06:57.200Z,126.30
2022-12-17T10:09:45.846Z,159.07
2022-12-17T10:12:33.690Z,132.47
2022-12-17T10:15:21.314Z,124.07
2022-12-17T10:18:06.975Z,96.30
2022-12-17T10:20:57.025Z,90.93
2022-12-17T10:23:45.112Z,116.57
2022-12-17T10:26:36.201Z,137.77
2022-12-17T10:29:28.127Z,129.37
2022-12-17T10:32:18.868Z,122.80
2022-12-17T10:35:05.982Z,120.70
2022-12-17T10:38:02.674Z,122.30
2022-12-17T10:40:51.649Z,115.23
2022-12-17T10:43:46.320Z,123.07
2022-12-17T10:46:57.393Z,125.90
2022-12-17T10:49:44.336Z,128.87
2022-12-17T10:52:43.116Z,128.13
2022-12-17T10:55:40.626Z,133.83
2022-12-17T10:58:32.718Z,138.80
2022-12-17T11:01:19.681Z,125.80
2022-12-17T11:04:09.158Z,131.50
2022-12-17T11:07:01.535Z,130.80
2022-12-17T11:10:08.607Z,146.77
2022-12-17T11:13:00.728Z,137.57
2022-12-17T11:15:51.538Z,133.10
2022-12-17T11:18:41.020Z,139.30
2022-12-17T11:21:31.592Z,132.80
2022-12-17T11:24:22.798Z,139.50
2022-12-17T11:27:12.245Z,130.63
2022-12-17T11:29:58.012Z,139.87
2022-12-17T11:33:00.310Z,101.37
2022-12-17T11:35:52.550Z,104.23
2022-12-17T11:38:48.520Z,172.60
2022-12-17T11:41:45.155Z,142.97
2022-12-17T11:44:40.637Z,132.10
2022-12-17T11:47:36.068Z,124.20
2022-12-17T11:50:34.829Z,132.47
2022-12-17T11:53:29.908Z,131.13
2022-12-17T11:56:24.092Z,135.03
2022-12-17T11:59:13.796Z,133.07
2022-12-17T12:02:07.256Z,132.50
2022-12-17T12:05:16.047Z,134.00
2022-12-17T12:08:13.231Z,149.03
2022-12-17T12:11:05.904Z,132.97
2022-12-17T12:13:58.942Z,24.20
2022-12-17T12:17:08.269Z,27.97
2022-12-17T12:20:01.863Z,25.87
2022-12-17T12:22:54.134Z,32.87
2022-12-17T12:25:51.567Z,54.53
2022-12-17T12:28:48.624Z,91.87
2022-12-17T12:31:43.283Z,82.30
2022-12-17T12:34:35.374Z,68.20
2022-12-17T12:37:23.892Z,89.03
2022-12-17T12:40:15.870Z,68.50
2022-12-17T12:43:08.168Z,86.47
2022-12-17T12:46:04.398Z,101.60
2022-12-17T12:49:01.359Z,92.50
2022-12-17T12:51:52.529Z,87.53
2022-12-17T12:54:49.903Z,93.13
2022-12-17T12:57:50.133Z,89.23
2022-12-17T13:00:48.758Z,83.67
2022-12-17T13:03:47.057Z,95.67
2022-12-17T13:06:37.408Z,92.73
2022-12-17T13:09:20.794Z,98.83
2022-12-17T13:11:51.800Z,79.67
2022-12-17T13:14:24.232Z,96.70
2022-12-17T13:16:56.441Z,108.50
2022-12-17T13:19:36.659Z,92.43
2022-12-17T13:22:29.257Z,97.63
2022-12-17T13:25:17.029Z,93.53
2022-12-17T13:27:46.675Z,91.70
2022-12-17T13:30:24.809Z,91.23
2022-12-17T13:33:05.907Z,88.87
2022-12-17T13:35:41.964Z,95.23
2022-12-17T13:38:19.908Z,91.57
2022-12-17T13:41:08.039Z,79.00
2022-12-17T13:43:43.296Z,80.20
2022-12-17T13:46:20.336Z,91.13
2022-12-17T13:48:57.538Z,93.47
2022-12-17T13:51:27.973Z,90.63
2022-12-17T13:53:57.877Z,80.67
2022-12-17T13:56:29.796Z,74.83
2022-12-17T13:59:08.437Z,70.97
2022-12-17T14:01:45.714Z,77.77
2022-12-17T14:04:22.292Z,82.10
2022-12-17T14:06:51.531Z,79.50
2022-12-17T14:09:22.868Z,86.00
2022-12-17T14:12:10.063Z,89.83
2022-12-17T14:14:41.522Z,80.17
2022-12-17T14:17:18.423Z,83.20
2022-12-17T14:19:47.868Z,67.40
2022-12-17T14:22:21.483Z,69.87
2022-12-17T14:24:50.180Z,66.33
2022-12-17T14:27:27.672Z,64.30
2022-12-17T14:29:56.970Z,65.27
2022-12-17T14:32:28.142Z,78.73
2022-12-17T14:35:00.606Z,75.47
2022-12-17T14:37:30.422Z,75.83
2022-12-17T14:40:03.854Z,87.97
2022-12-17T14:42:37.587Z,71.77
2022-12-17T14:45:09.126Z,72.07
2022-12-17T14:47:38.685Z,85.00
2022-12-17T14:50:25.149Z,74.97
2022-12-17T14:52:54.658Z,71.43
2022-12-17T14:55:30.661Z,74.53
2022-12-17T14:58:21.983Z,84.13
2022-12-17T15:00:54.555Z,74.13
2022-12-17T15:03:26.521Z,73.03
2022-12-17T15:05:59.291Z,76.80
2022-12-17T15:08:30.649Z,82.07
2022-12-17T15:10:59.231Z,89.67
2022-12-17T15:13:28.874Z,86.23
2022-12-17T15:15:57.659Z,89.77
2022-12-17T15:18:26.104Z,92.13
2022-12-17T15:20:54.785Z,92.93
2022-12-17T15:23:25.179Z,87.00
2022-12-17T15:25:55.472Z,93.23
2022-12-17T15:28:24.895Z,87.57
2022-12-17T15:30:55.212Z,85.47
2022-12-17T15:33:23.542Z,88.97
2022-12-17T15:35:52.468Z,92.00
2022-12-17T15:38:20.765Z,105.97
2022-12-17T15:40:49.292Z,98.27
2022-12-17T15:43:16.564Z,102.63
2022-12-17T15:45:46.966Z,104.50
2022-12-17T15:48:18.549Z,100.43
2022-12-17T15:50:47.116Z,106.27
2022-12-17T15:53:15.682Z,94.30
2022-12-17T15:55:44.701Z,95.47
2022-12-17T15:58:13.895Z,88.33
2022-12-17T16:00:42.418Z,85.87
2022-12-17T16:03:10.776Z,88.93
2022-12-17T16:05:40.993Z,99.10
2022-12-17T16:08:09.249Z,106.17
2022-12-17T16:10:38.714Z,106.73
2022-12-17T16:13:06.957Z,102.20
2022-12-17T16:15:35.612Z,110.00
2022-12-17T16:18:03.921Z,115.60
2022-12-17T16:20:32.578Z,62.57
2022-12-17T16:23:02.315Z,29.80
2022-12-17T16:25:30.942Z,31.13
2022-12-17T16:27:59.198Z,34.23
2022-12-17T16:30:27.760Z,26.63
2022-12-17T16:32:58.848Z,28.50
2022-12-17T16:35:28.774Z,25.30
2022-12-17T16:37:57.021Z,20.47
2022-12-17T16:40:27.034Z,23.87
2022-12-17T16:42:56.729Z,29.90
2022-12-17T16:45:25.236Z,31.47
2022-12-17T16:47:53.588Z,23.30
2022-12-17T16:50:22.310Z,24.37
2022-12-17T16:52:50.567Z,22.73
2022-12-17T16:55:19.135Z,23.33
2022-12-17T16:57:48.750Z,24.67
2022-12-17T17:00:17.658Z,30.50
2022-12-17T17:02:53.047Z,27.07
2022-12-17T17:05:22.188Z,25.37
2022-12-17T17:07:50.477Z,29.87
2022-12-17T17:10:19.208Z,24.13
2022-12-17T17:12:48.881Z,26.03
2022-12-17T17:15:17.634Z,34.30
2022-12-17T17:17:55.963Z,29.17
2022-12-17T17:20:26.240Z,23.30
2022-12-17T17:22:54.596Z,27.33
2022-12-17T17:25:23.292Z,33.60
2022-12-17T17:27:53.135Z,33.73
2022-12-17T17:30:21.619Z,31.77
2022-12-17T17:32:50.160Z,28.43
2022-12-17T17:35:18.933Z,29.00
2022-12-17T17:37:47.249Z,29.10
2022-12-17T17:40:16.000Z,29.37
2022-12-17T17:42:47.366Z,28.73
2022-12-17T17:45:21.487Z,30.23
2022-12-17T17:47:49.790Z,28.70
2022-12-17T17:50:18.422Z,26.13
2022-12-17T17:52:46.724Z,32.57
2022-12-17T17:55:15.351Z,32.13
2022-12-17T17:57:43.591Z,35.93
2022-12-17T18:00:13.330Z,35.10
2022-12-17T18:02:43.223Z,37.83
2022-12-17T18:05:12.082Z,31.00
2022-12-17T18:07:40.444Z,30.07
2022-12-17T18:10:10.106Z,27.80
2022-12-17T18:12:56.053Z,32.73
2022-12-17T18:15:24.859Z,28.83
2022-12-17T18:17:54.852Z,25.17
2022-12-17T18:20:23.684Z,25.50
2022-12-17T18:22:52.350Z,25.63
2022-12-17T18:25:21.842Z,24.83
2022-12-17T18:27:53.130Z,20.43
2022-12-17T18:30:22.086Z,19.37
2022-12-17T18:32:50.670Z,27.53
2022-12-17T18:35:21.064Z,24.50
2022-12-17T18:37:49.481Z,26.07
2022-12-17T18:40:18.472Z,23.63
2022-12-17T18:43:04.226Z,23.90
2022-12-17T18:45:38.297Z,22.83
2022-12-17T18:48:07.052Z,27.17
2022-12-17T18:50:38.527Z,24.57
2022-12-17T18:53:07.402Z,24.83
2022-12-17T18:55:40.525Z,27.20
2022-12-17T18:58:10.483Z,23.50
2022-12-17T19:00:39.982Z,28.37
2022-12-17T19:03:10.160Z,26.07
2022-12-17T19:05:45.802Z,27.67
2022-12-17T19:08:15.003Z,22.97
2022-12-17T19:10:43.836Z,31.27
2022-12-17T19:13:14.285Z,26.87
2022-12-17T19:15:43.126Z,28.50
2022-12-17T19:18:11.468Z,26.20
2022-12-17T19:20:41.711Z,26.73
2022-12-17T19:23:10.144Z,35.87
2022-12-17T19:25:39.077Z,30.30
2022-12-17T19:28:07.710Z,31.80
2022-12-17T19:30:36.604Z,28.80
2022-12-17T19:33:08.471Z,35.00
2022-12-17T19:35:37.630Z,30.83
2022-12-17T19:38:07.263Z,34.13
2022-12-17T19:40:36.224Z,37.00
2022-12-17T19:43:04.583Z,31.50
2022-12-17T19:45:33.448Z,31.00
2022-12-17T19:48:01.997Z,31.20
2022-12-17T19:50:31.025Z,34.03
2022-12-17T19:52:59.561Z,35.00
2022-12-17T19:55:29.545Z,28.57
2022-12-17T19:57:57.898Z,28.90
2022-12-17T20:00:27.015Z,28.83
2022-12-17T20:02:56.498Z,34.27
2022-12-17T20:05:26.677Z,30.90
2022-12-17T20:07:54.963Z,28.33
2022-12-17T20:10:23.567Z,28.47
2022-12-17T20:12:53.242Z,24.57
2022-12-17T20:15:21.820Z,28.67
2022-12-17T20:17:50.610Z,29.43
2022-12-17T20:20:19.265Z,30.33
2022-12-17T20:22:47.625Z,29.80
2022-12-17T20:25:16.381Z,23.37
2022-12-17T20:27:44.903Z,23.33
2022-12-17T20:30:15.592Z,27.43
2022-12-17T20:32:44.741Z,30.20
2022-12-17T20:35:13.645Z,27.77
2022-12-17T20:37:42.098Z,38.13
2022-12-17T20:40:11.820Z,35.53
2022-12-17T20:42:40.159Z,27.40
2022-12-17T20:45:09.746Z,34.67
2022-12-17T20:47:39.511Z,29.93
2022-12-17T20:50:11.045Z,36.73
2022-12-17T20:52:39.486Z,30.43
2022-12-17T20:55:08.822Z,31.10
2022-12-17T20:57:37.112Z,39.70
2022-12-17T21:00:07.154Z,33.63
2022-12-17T21:02:36.312Z,29.33
2022-12-17T21:05:07.790Z,32.10
2022-12-17T21:07:36.153Z,35.17
2022-12-17T21:10:05.237Z,38.93
2022-12-17T21:12:54.256Z,35.00
2022-12-17T21:15:23.078Z,31.93
2022-12-17T21:17:51.581Z,35.63
2022-12-17T21:20:21.630Z,39.67
2022-12-17T21:22:50.463Z,31.10
2022-12-17T21:25:19.258Z,49.10
2022-12-17T21:27:47.657Z,37.17
2022-12-17T21:30:16.336Z,33.47
2022-12-17T21:32:44.652Z,33.53
2022-12-17T21:35:15.861Z,36.67
2022-12-17T21:37:46.705Z,34.10
2022-12-17T21:40:16.214Z,33.00
2022-12-17T21:43:02.464Z,47.57
2022-12-17T21:45:36.489Z,35.63
2022-12-17T21:48:05.635Z,37.57
2022-12-17T21:50:42.108Z,34.37
2022-12-17T21:53:13.536Z,32.30
2022-12-17T21:55:42.463Z,32.20
2022-12-17T21:58:11.238Z,38.23
2022-12-17T22:00:40.057Z,41.30
2022-12-17T22:03:08.436Z,38.60
2022-12-17T22:05:37.180Z,37.43
2022-12-17T22:08:06.304Z,39.70
2022-12-17T22:10:43.781Z,35.20
2022-12-17T22:13:33.810Z,32.43
2022-12-17T22:16:06.910Z,40.60
2022-12-17T22:18:35.227Z,35.97
2022-12-17T22:21:04.972Z,34.87
2022-12-17T22:23:33.660Z,43.40
2022-12-17T22:26:04.016Z,33.37
2022-12-17T22:28:32.300Z,29.83
2022-12-17T22:31:23.584Z,39.17
2022-12-17T22:34:50.675Z,31.03
2022-12-17T22:39:55.391Z,33.80
2022-12-17T22:44:31.064Z,32.67
2022-12-17T22:44:37.201Z,39.90
2022-12-17T22:45:26.686Z,31.80
2022-12-17T22:47:55.533Z,35.93
2022-12-17T22:50:28.169Z,36.93
2022-12-17T22:53:03.049Z,41.67
2022-12-17T22:55:32.047Z,35.80
2022-12-17T22:58:02.771Z,40.53
2022-12-17T23:00:34.758Z,42.67
2022-12-17T23:03:03.729Z,40.33
2022-12-17T23:05:33.281Z,42.23
2022-12-17T23:08:02.270Z,40.90
2022-12-17T23:10:30.620Z,39.77
2022-12-17T23:12:59.307Z,44.17
2022-12-17T23:15:32.088Z,48.77
2022-12-17T23:18:02.951Z,42.90
2022-12-17T23:20:33.817Z,42.53
2022-12-17T23:23:03.159Z,37.33
2022-12-17T23:25:31.824Z,40.80
2022-12-17T23:28:00.395Z,37.53
2022-12-17T23:30:30.501Z,38.10
2022-12-17T23:32:59.227Z,35.23
2022-12-17T23:35:27.716Z,34.30
2022-12-17T23:37:56.399Z,44.13
2022-12-17T23:40:25.839Z,42.40
2022-12-17T23:42:57.350Z,42.00
2022-12-17T23:45:25.716Z,45.13
2022-12-17T23:47:57.482Z,41.80
2022-12-17T23:50:25.837Z,41.10
2022-12-17T23:52:54.483Z,48.07
2022-12-17T23:55:22.770Z,49.27
2022-12-17T23:57:55.597Z,42.40
